ラロトンガ の空港の天気 - METARとTAF

ラロトンガ国際空港 ( NCRG / RAR ) - クック諸島 アバルア (ラロトンガ島)
飛行場実況気象(Metar)
観測時間05/27 14:30 CKT (05/28 00:30 UTC)
風向・風速西 3m/s
視程-
天気現象
全天の4割程度の雲 雲底高度 880m
全天の8割程度の雲 雲底高度 1280m
気温27℃
湿度70%
気圧1016hPa
METARNCRG 280030Z AUTO 27006KT 210V300 //// SCT029/// BKN042/// 27/21 Q1016
過去の天気等 Google飛行場航空写真 Wunderground天気予報

過去48時間のMETAR

飛行場予報(TAF)
発表時間: 5/27 13:17 CKT (5/27 23:17 UTC)
予報対象時間: 27日14時 CKT ~ 28日14時 CKT
風向・風速東北東 4m/s
視程10km以上
全天の4割程度の雲 雲底高度 910m
TAF NCRG 272317Z 2800/2824 07008KT 9999 SCT030